createdAt,value
2019-04-30T00:03:21.450Z,58.20
2019-04-30T00:08:30.202Z,58.20
2019-04-30T00:13:41.898Z,58.30
2019-04-30T00:18:57.134Z,58.40
2019-04-30T00:24:00.812Z,58.50
2019-04-30T00:29:02.494Z,58.50
2019-04-30T00:34:05.024Z,58.60
2019-04-30T00:39:13.381Z,58.70
2019-04-30T00:44:15.120Z,58.70
2019-04-30T00:49:23.152Z,58.70
2019-04-30T00:54:29.793Z,58.80
2019-04-30T00:59:39.849Z,58.80
2019-04-30T01:04:41.133Z,58.90
2019-04-30T01:09:49.405Z,59.10
2019-04-30T01:15:06.384Z,59.20
2019-04-30T01:20:12.462Z,59.30
2019-04-30T01:25:51.492Z,59.30
2019-04-30T01:31:06.395Z,59.80
2019-04-30T01:36:13.376Z,59.30
2019-04-30T01:41:20.289Z,59.30
2019-04-30T01:46:22.682Z,59.30
2019-04-30T01:51:32.262Z,59.50
2019-04-30T01:56:56.265Z,59.60
2019-04-30T02:01:59.819Z,59.70
2019-04-30T02:07:19.351Z,59.70
2019-04-30T02:12:23.907Z,59.80
2019-04-30T02:17:29.272Z,59.70
2019-04-30T02:22:31.318Z,59.80
2019-04-30T02:27:35.983Z,60.00
2019-04-30T02:32:39.555Z,60.20
2019-04-30T02:38:02.526Z,60.30
2019-04-30T02:43:09.434Z,60.40
2019-04-30T02:48:14.180Z,60.40
2019-04-30T02:53:50.732Z,60.50
2019-04-30T02:59:00.382Z,60.50
2019-04-30T03:04:01.827Z,60.50
2019-04-30T03:09:06.481Z,60.70
2019-04-30T03:14:10.697Z,60.70
2019-04-30T03:19:30.690Z,60.70
2019-04-30T03:24:33.216Z,60.80
2019-04-30T03:29:40.190Z,60.80
2019-04-30T03:34:51.150Z,61.00
2019-04-30T03:39:53.272Z,61.10
2019-04-30T03:44:54.592Z,61.10
2019-04-30T03:50:00.045Z,61.10
2019-04-30T03:55:02.866Z,61.10
2019-04-30T04:00:05.837Z,61.20
2019-04-30T04:05:24.315Z,61.40
2019-04-30T04:10:29.797Z,61.30
2019-04-30T04:15:31.661Z,61.40
2019-04-30T04:20:33.103Z,61.40
2019-04-30T04:25:35.412Z,61.40
2019-04-30T04:30:39.259Z,61.50
2019-04-30T04:35:41.150Z,61.70
2019-04-30T04:40:44.763Z,61.80
2019-04-30T04:45:49.808Z,62.00
2019-04-30T04:50:50.819Z,62.10
2019-04-30T04:55:52.456Z,62.00
2019-04-30T05:00:54.970Z,62.10
2019-04-30T05:06:00.090Z,62.10
2019-04-30T05:11:01.091Z,62.00
2019-04-30T05:16:04.588Z,61.90
2019-04-30T05:21:06.038Z,61.90
2019-04-30T05:26:08.433Z,61.80
2019-04-30T05:31:12.125Z,61.80
2019-04-30T05:36:16.293Z,61.90
2019-04-30T05:41:19.296Z,62.00
2019-04-30T05:46:21.328Z,61.90
2019-04-30T05:51:23.848Z,62.00
2019-04-30T05:56:30.190Z,62.30
2019-04-30T06:01:33.801Z,62.20
2019-04-30T06:06:35.359Z,62.10
2019-04-30T06:11:55.486Z,62.10
2019-04-30T06:17:09.749Z,61.90
2019-04-30T06:22:11.644Z,61.70
2019-04-30T06:27:14.125Z,61.60
2019-04-30T06:32:18.772Z,61.60
2019-04-30T06:37:23.192Z,61.40
2019-04-30T06:42:25.913Z,61.30
2019-04-30T06:47:33.192Z,61.10
2019-04-30T06:52:34.317Z,61.20
2019-04-30T06:57:35.849Z,61.20
2019-04-30T07:02:39.298Z,61.40
2019-04-30T07:07:42.889Z,61.30
2019-04-30T07:12:49.241Z,61.60
2019-04-30T07:17:50.671Z,61.60
2019-04-30T07:22:58.888Z,61.70
2019-04-30T07:27:55.557Z,61.90
2019-04-30T07:32:59.684Z,62.00
2019-04-30T07:38:04.813Z,61.70
2019-04-30T07:43:06.192Z,61.40
2019-04-30T07:48:09.297Z,61.20
2019-04-30T07:53:12.052Z,60.80
2019-04-30T07:58:16.306Z,60.60
2019-04-30T08:03:32.091Z,60.30
2019-04-30T08:08:35.927Z,60.00
2019-04-30T08:13:39.898Z,59.80
2019-04-30T08:18:41.744Z,59.50
2019-04-30T08:23:43.273Z,59.40
2019-04-30T08:28:44.989Z,59.00
2019-04-30T08:33:46.596Z,58.70
2019-04-30T08:38:51.136Z,58.50
2019-04-30T08:43:54.781Z,58.40
2019-04-30T08:48:58.840Z,58.20
2019-04-30T08:54:00.451Z,58.30
2019-04-30T08:59:02.024Z,58.30
2019-04-30T09:04:07.456Z,57.90
2019-04-30T09:09:11.049Z,57.50
2019-04-30T09:14:14.982Z,57.10
2019-04-30T09:19:16.650Z,57.10
2019-04-30T09:24:23.938Z,57.00
2019-04-30T09:29:30.552Z,57.60
2019-04-30T09:34:32.008Z,56.50
2019-04-30T09:39:34.439Z,57.10
2019-04-30T09:44:41.795Z,57.00
2019-04-30T09:49:44.856Z,55.90
2019-04-30T09:54:52.499Z,54.70
2019-04-30T09:59:55.641Z,54.40
2019-04-30T10:04:57.567Z,55.40
2019-04-30T10:10:00.553Z,56.00
2019-04-30T10:15:09.143Z,55.70
2019-04-30T10:20:15.212Z,55.10
2019-04-30T10:25:16.730Z,55.40
2019-04-30T10:30:24.973Z,55.50
2019-04-30T10:35:28.477Z,55.60
2019-04-30T10:40:30.084Z,55.70
2019-04-30T10:45:32.138Z,55.90
2019-04-30T10:50:33.806Z,55.50
2019-04-30T10:55:38.724Z,55.10
2019-04-30T11:00:43.578Z,55.10
2019-04-30T11:05:50.706Z,55.10
2019-04-30T11:10:55.271Z,54.80
2019-04-30T11:15:56.713Z,54.40
2019-04-30T11:21:01.510Z,54.50
2019-04-30T11:26:03.934Z,54.40
2019-04-30T11:31:23.411Z,55.40
2019-04-30T11:36:25.281Z,55.10
2019-04-30T11:41:32.592Z,54.30
2019-04-30T11:46:59.592Z,54.20
2019-04-30T11:52:01.248Z,54.10
2019-04-30T11:57:03.302Z,54.30
2019-04-30T12:02:07.853Z,54.20
2019-04-30T12:07:11.189Z,53.10
2019-04-30T12:12:14.753Z,53.50
2019-04-30T12:17:16.216Z,53.60
2019-04-30T12:22:20.226Z,53.40
2019-04-30T12:27:21.956Z,52.90
2019-04-30T12:32:24.442Z,52.80
2019-04-30T12:37:29.061Z,51.90
2019-04-30T12:42:30.694Z,51.80
2019-04-30T12:47:33.953Z,52.00
2019-04-30T12:52:39.447Z,52.30
2019-04-30T12:57:55.314Z,53.00
2019-04-30T13:02:46.723Z,51.70
2019-04-30T13:08:00.159Z,51.90
2019-04-30T13:13:04.143Z,53.40
2019-04-30T13:18:06.029Z,52.90
2019-04-30T13:23:08.811Z,52.40
2019-04-30T13:28:15.024Z,51.70
2019-04-30T13:33:25.590Z,51.80
2019-04-30T13:38:29.981Z,50.60
2019-04-30T13:43:50.149Z,51.20
2019-04-30T13:48:52.860Z,51.90
2019-04-30T13:53:57.311Z,51.80
2019-04-30T13:58:58.903Z,50.30
2019-04-30T14:04:05.422Z,49.20
2019-04-30T14:09:08.973Z,50.40
2019-04-30T14:14:11.694Z,51.20
2019-04-30T14:19:13.038Z,50.00
2019-04-30T14:24:20.595Z,50.20
2019-04-30T14:29:22.182Z,50.90
2019-04-30T14:34:23.863Z,50.80
2019-04-30T14:39:25.427Z,49.20
2019-04-30T14:44:35.077Z,50.00
2019-04-30T14:50:01.667Z,50.40
2019-04-30T14:55:12.527Z,49.10
2019-04-30T15:00:32.799Z,48.90
2019-04-30T15:05:40.459Z,49.50
2019-04-30T15:10:38.711Z,49.00
2019-04-30T15:15:41.638Z,48.60
2019-04-30T15:20:43.492Z,48.80
2019-04-30T15:25:44.963Z,49.40
2019-04-30T15:30:46.550Z,48.80
2019-04-30T15:35:50.233Z,48.90
2019-04-30T15:40:52.690Z,48.50
2019-04-30T15:45:54.270Z,49.60
2019-04-30T15:50:55.640Z,51.10
2019-04-30T15:56:00.679Z,51.80
2019-04-30T16:01:05.126Z,51.70
2019-04-30T16:06:08.340Z,51.80
2019-04-30T16:11:13.046Z,51.50
2019-04-30T16:16:22.747Z,52.00
2019-04-30T16:21:24.125Z,51.40
2019-04-30T16:26:25.832Z,52.00
2019-04-30T16:31:29.150Z,52.00
2019-04-30T16:36:30.956Z,51.50
2019-04-30T16:41:32.524Z,51.20
2019-04-30T16:46:33.915Z,51.00
2019-04-30T16:51:35.440Z,51.40
2019-04-30T16:56:38.659Z,52.00
2019-04-30T17:01:40.666Z,52.30
2019-04-30T17:07:00.528Z,52.50
2019-04-30T17:12:10.031Z,52.60
2019-04-30T17:17:14.832Z,52.70
2019-04-30T17:22:17.432Z,52.80
2019-04-30T17:27:21.973Z,52.70
2019-04-30T17:32:22.228Z,52.60
2019-04-30T17:37:31.528Z,52.50
2019-04-30T17:42:34.033Z,52.60
2019-04-30T17:47:36.452Z,53.50
2019-04-30T17:52:37.952Z,53.30
2019-04-30T17:57:42.474Z,53.60
2019-04-30T18:02:44.178Z,53.70
2019-04-30T18:07:46.027Z,53.80
2019-04-30T18:12:47.595Z,54.00
2019-04-30T18:17:51.033Z,54.10
2019-04-30T18:23:03.559Z,54.30
2019-04-30T18:28:06.511Z,54.40
2019-04-30T18:33:13.179Z,54.40
2019-04-30T18:38:17.955Z,54.50
2019-04-30T18:43:20.659Z,54.80
2019-04-30T18:48:22.272Z,54.90
2019-04-30T18:53:28.839Z,55.00
2019-04-30T18:58:39.195Z,55.30
2019-04-30T19:03:33.894Z,55.40
2019-04-30T19:08:40.244Z,55.50
2019-04-30T19:13:55.481Z,55.50
2019-04-30T19:19:05.652Z,55.60
2019-04-30T19:24:12.915Z,55.70
2019-04-30T19:29:14.224Z,55.70
2019-04-30T19:34:15.586Z,55.80
2019-04-30T19:39:19.579Z,55.90
2019-04-30T19:44:23.181Z,56.00
2019-04-30T19:49:24.665Z,56.10
2019-04-30T19:54:26.151Z,56.20
2019-04-30T19:59:42.662Z,56.30
2019-04-30T20:04:49.837Z,56.40
2019-04-30T20:10:01.146Z,56.40
2019-04-30T20:15:02.033Z,56.60
2019-04-30T20:20:05.976Z,56.60
2019-04-30T20:25:13.283Z,56.70
2019-04-30T20:30:15.309Z,56.60
2019-04-30T20:35:17.808Z,56.60
2019-04-30T20:40:20.172Z,56.70
2019-04-30T20:45:33.748Z,56.70
2019-04-30T20:51:01.459Z,56.80
2019-04-30T20:56:09.995Z,56.80
2019-04-30T21:01:12.341Z,56.90
2019-04-30T21:06:13.668Z,56.90
2019-04-30T21:11:14.966Z,57.20
2019-04-30T21:16:22.439Z,57.30
2019-04-30T21:21:28.816Z,57.40
2019-04-30T21:26:39.362Z,57.50
2019-04-30T21:31:53.691Z,57.60
2019-04-30T21:36:55.117Z,57.60
2019-04-30T21:41:56.652Z,57.60
2019-04-30T21:46:57.990Z,57.60
2019-04-30T21:52:35.304Z,57.70
2019-04-30T21:57:59.235Z,57.80
2019-04-30T22:03:09.695Z,57.80
2019-04-30T22:08:21.320Z,57.80
2019-04-30T22:13:25.953Z,57.90
2019-04-30T22:18:47.466Z,57.90
2019-04-30T22:24:21.177Z,58.00
2019-04-30T22:29:42.692Z,58.00
2019-04-30T22:34:46.070Z,57.90
2019-04-30T22:40:04.797Z,58.50
2019-04-30T22:45:13.313Z,58.00
2019-04-30T22:50:29.778Z,58.10
2019-04-30T22:55:34.312Z,58.20
2019-04-30T23:00:48.579Z,58.20
2019-04-30T23:05:59.468Z,58.30
2019-04-30T23:11:11.383Z,58.40
2019-04-30T23:16:13.233Z,58.60
2019-04-30T23:21:18.111Z,58.70
2019-04-30T23:26:37.877Z,58.70
2019-04-30T23:31:39.204Z,58.80
2019-04-30T23:36:43.823Z,58.80
2019-04-30T23:41:46.226Z,59.00
2019-04-30T23:46:53.524Z,59.00
2019-04-30T23:51:58.064Z,59.10
2019-04-30T23:57:14.677Z,59.30
